createdAt,value
2022-11-05T00:01:15.945Z,100301.94
2022-11-05T00:03:58.265Z,100296.13
2022-11-05T00:06:42.445Z,100310.38
2022-11-05T00:09:34.961Z,100309.31
2022-11-05T00:12:21.343Z,100309.94
2022-11-05T00:15:03.763Z,100307.59
2022-11-05T00:17:33.191Z,100299.59
2022-11-05T00:20:02.823Z,100308.97
2022-11-05T00:22:47.298Z,100306.41
2022-11-05T00:25:17.100Z,100316.75
2022-11-05T00:27:47.696Z,100288.00
2022-11-05T00:30:20.887Z,100302.53
2022-11-05T00:32:52.321Z,100304.06
2022-11-05T00:35:23.526Z,100314.88
2022-11-05T00:37:59.735Z,100318.59
2022-11-05T00:40:28.915Z,100324.41
2022-11-05T00:43:11.263Z,100327.97
2022-11-05T00:45:40.849Z,100320.09
2022-11-05T00:48:23.012Z,100318.97
2022-11-05T00:50:53.578Z,100331.66
2022-11-05T00:53:31.427Z,100320.44
2022-11-05T00:56:00.705Z,100344.09
2022-11-05T00:58:35.200Z,100351.56
2022-11-05T01:01:06.037Z,100334.88
2022-11-05T01:06:21.728Z,100311.25
2022-11-05T01:08:52.853Z,100345.00
2022-11-05T01:11:44.135Z,100355.03
2022-11-05T01:14:15.509Z,100352.19
2022-11-05T01:16:45.131Z,100355.69
2022-11-05T01:19:19.600Z,100365.81
2022-11-05T01:21:54.283Z,100370.06
2022-11-05T01:24:26.332Z,100344.72
2022-11-05T01:26:55.560Z,100364.41
2022-11-05T01:29:25.706Z,100361.56
2022-11-05T01:31:55.098Z,100372.66
2022-11-05T01:34:25.237Z,100363.59
2022-11-05T01:36:54.545Z,100371.81
2022-11-05T01:39:25.823Z,100372.44
2022-11-05T01:41:55.008Z,100363.28
2022-11-05T01:45:03.177Z,100350.94
2022-11-05T01:47:59.976Z,100360.28
2022-11-05T01:50:38.982Z,100356.28
2022-11-05T01:53:14.735Z,100376.50
2022-11-05T01:55:51.513Z,100358.75
2022-11-05T01:58:24.482Z,100366.59
2022-11-05T02:00:54.320Z,100369.59
2022-11-05T02:03:24.009Z,100339.97
2022-11-05T02:05:55.048Z,100377.03
2022-11-05T02:08:36.683Z,100390.50
2022-11-05T02:11:12.993Z,100382.44
2022-11-05T02:13:42.711Z,100393.25
2022-11-05T02:16:25.672Z,100379.13
2022-11-05T02:19:00.904Z,100382.63
2022-11-05T02:22:08.365Z,100387.66
2022-11-05T02:25:08.409Z,100420.59
2022-11-05T02:28:20.011Z,100416.13
2022-11-05T02:30:58.717Z,100395.16
2022-11-05T02:33:37.956Z,100400.81
2022-11-05T02:36:29.107Z,100411.03
2022-11-05T02:39:14.775Z,100403.47
2022-11-05T02:41:53.295Z,100396.63
2022-11-05T02:44:37.422Z,100413.47
2022-11-05T02:47:18.354Z,100417.13
2022-11-05T02:50:00.373Z,100405.84
2022-11-05T02:52:35.387Z,100421.91
2022-11-05T02:57:50.257Z,100409.66
2022-11-05T03:00:52.172Z,100402.91
2022-11-05T03:03:29.175Z,100431.16
2022-11-05T03:06:18.216Z,100432.31
2022-11-05T03:09:13.383Z,100376.78
2022-11-05T03:11:58.060Z,100420.72
2022-11-05T03:14:36.164Z,100421.59
2022-11-05T03:17:16.469Z,100412.19
2022-11-05T03:19:53.041Z,100394.31
2022-11-05T03:22:27.729Z,100429.16
2022-11-05T03:25:02.061Z,100429.59
2022-11-05T03:27:41.737Z,100444.06
2022-11-05T03:30:13.572Z,100438.91
2022-11-05T03:32:46.180Z,100430.81
2022-11-05T03:35:23.038Z,100446.66
2022-11-05T03:37:57.763Z,100455.28
2022-11-05T03:40:28.223Z,100454.25
2022-11-05T03:43:00.290Z,100441.88
2022-11-05T03:45:34.492Z,100426.97
2022-11-05T03:48:17.956Z,100454.97
2022-11-05T03:50:57.715Z,100443.06
2022-11-05T03:53:35.255Z,100456.13
2022-11-05T03:56:08.335Z,100464.19
2022-11-05T04:01:18.704Z,100453.69
2022-11-05T04:03:47.815Z,100478.31
2022-11-05T04:06:36.982Z,100472.19
2022-11-05T04:09:19.131Z,100460.56
2022-11-05T04:12:01.259Z,100448.03
2022-11-05T04:14:30.493Z,100466.66
2022-11-05T04:17:06.485Z,100477.44
2022-11-05T04:19:48.952Z,100494.28
2022-11-05T04:22:33.242Z,100484.00
2022-11-05T04:25:02.811Z,100495.31
2022-11-05T04:27:33.370Z,100486.84
2022-11-05T04:30:20.620Z,100488.91
2022-11-05T04:33:11.996Z,100479.94
2022-11-05T04:35:43.400Z,100493.34
2022-11-05T04:38:16.570Z,100500.59
2022-11-05T04:40:46.679Z,100501.38
2022-11-05T04:43:17.977Z,100483.56
2022-11-05T04:45:52.533Z,100477.16
2022-11-05T04:48:26.846Z,100492.00
2022-11-05T04:50:55.968Z,100500.03
2022-11-05T04:56:11.483Z,100492.16
2022-11-05T04:58:41.961Z,100501.25
2022-11-05T05:01:15.075Z,100509.09
2022-11-05T05:03:44.640Z,100515.19
2022-11-05T05:06:19.742Z,100504.00
2022-11-05T05:08:51.889Z,100512.66
2022-11-05T05:11:26.177Z,100501.28
2022-11-05T05:13:55.218Z,100513.56
2022-11-05T05:16:29.703Z,100518.81
2022-11-05T05:18:58.827Z,100506.69
2022-11-05T05:21:40.616Z,100515.94
2022-11-05T05:24:13.934Z,100503.28
2022-11-05T05:26:45.468Z,100520.91
2022-11-05T05:29:15.660Z,100513.81
2022-11-05T05:31:45.352Z,100535.19
2022-11-05T05:34:26.380Z,100529.34
2022-11-05T05:36:55.785Z,100519.91
2022-11-05T05:39:28.107Z,100530.16
2022-11-05T05:41:57.337Z,100526.13
2022-11-05T05:44:27.511Z,100556.78
2022-11-05T05:49:31.838Z,100552.78
2022-11-05T05:52:01.036Z,100542.34
2022-11-05T05:54:35.004Z,100549.84
2022-11-05T05:57:07.055Z,100556.88
2022-11-05T05:59:38.649Z,100565.63
2022-11-05T06:02:08.234Z,100568.44
2022-11-05T06:04:37.431Z,100570.50
2022-11-05T06:07:13.435Z,100562.97
2022-11-05T06:09:55.712Z,100570.28
2022-11-05T06:12:25.067Z,100567.19
2022-11-05T06:14:54.159Z,100558.19
2022-11-05T06:17:23.464Z,100547.81
2022-11-05T06:22:27.632Z,100563.66
2022-11-05T06:24:58.732Z,100538.97
2022-11-05T06:27:28.009Z,100575.25
2022-11-05T06:29:57.236Z,100579.91
2022-11-05T06:32:26.579Z,100571.97
2022-11-05T06:35:00.737Z,100572.53
2022-11-05T06:37:30.063Z,100566.03
2022-11-05T06:40:07.269Z,100583.78
2022-11-05T06:42:36.664Z,100579.19
2022-11-05T06:45:07.774Z,100590.69
2022-11-05T06:47:37.192Z,100579.03
2022-11-05T06:50:07.169Z,100580.38
2022-11-05T06:52:40.906Z,100587.97
2022-11-05T06:55:12.605Z,100599.69
2022-11-05T06:57:46.847Z,100598.41
2022-11-05T07:00:17.079Z,100592.56
2022-11-05T07:02:46.636Z,100580.88
2022-11-05T07:05:16.579Z,100589.03
2022-11-05T07:07:47.239Z,100613.53
2022-11-05T07:10:23.451Z,100612.84
2022-11-05T07:12:52.727Z,100617.53
2022-11-05T07:15:21.923Z,100616.56
2022-11-05T07:17:51.145Z,100610.19
2022-11-05T07:20:20.519Z,100609.97
2022-11-05T07:22:49.736Z,100581.50
2022-11-05T07:25:19.222Z,100611.59
2022-11-05T07:27:50.349Z,100606.00
2022-11-05T07:30:24.825Z,100610.16
2022-11-05T07:32:54.532Z,100608.44
2022-11-05T07:35:23.664Z,100604.84
2022-11-05T07:37:55.861Z,100619.94
2022-11-05T07:40:27.139Z,100621.41
2022-11-05T07:42:59.812Z,100622.91
2022-11-05T07:45:31.274Z,100641.19
2022-11-05T07:48:02.836Z,100625.06
2022-11-05T07:50:34.374Z,100627.81
2022-11-05T07:53:04.389Z,100634.59
2022-11-05T07:55:33.484Z,100634.97
2022-11-05T07:58:05.260Z,100647.47
2022-11-05T08:00:35.445Z,100633.22
2022-11-05T08:03:14.690Z,100640.69
2022-11-05T08:05:46.378Z,100656.97
2022-11-05T08:08:17.157Z,100644.44
2022-11-05T08:10:47.369Z,100660.72
2022-11-05T08:13:19.477Z,100667.50
2022-11-05T08:15:48.985Z,100654.63
2022-11-05T08:18:19.461Z,100654.38
2022-11-05T08:20:50.162Z,100652.38
2022-11-05T08:23:19.515Z,100659.19
2022-11-05T08:25:48.621Z,100663.88
2022-11-05T08:28:26.366Z,100665.25
2022-11-05T08:30:57.224Z,100632.44
2022-11-05T08:33:29.072Z,100664.50
2022-11-05T08:35:58.373Z,100661.22
2022-11-05T08:38:27.786Z,100657.28
2022-11-05T08:40:59.419Z,100670.63
2022-11-05T08:43:30.684Z,100637.38
2022-11-05T08:46:02.122Z,100668.00
2022-11-05T08:48:31.457Z,100673.97
2022-11-05T08:51:03.599Z,100676.06
2022-11-05T08:53:33.996Z,100659.25
2022-11-05T08:56:03.360Z,100664.41
2022-11-05T08:58:34.765Z,100671.13
2022-11-05T09:01:06.509Z,100669.13
2022-11-05T09:03:40.946Z,100655.06
2022-11-05T09:06:10.432Z,100661.56
2022-11-05T09:08:39.676Z,100664.06
2022-11-05T09:11:08.926Z,100657.00
2022-11-05T09:13:40.076Z,100665.91
2022-11-05T09:16:20.085Z,100659.47
2022-11-05T09:18:49.736Z,100667.69
2022-11-05T09:21:19.516Z,100670.78
2022-11-05T09:23:49.252Z,100668.97
2022-11-05T09:26:18.542Z,100667.16
2022-11-05T09:28:50.803Z,100660.19
2022-11-05T09:31:20.048Z,100668.44
2022-11-05T09:33:49.438Z,100657.53
2022-11-05T09:36:18.722Z,100650.63
2022-11-05T09:38:47.833Z,100662.13
2022-11-05T09:41:25.561Z,100666.16
2022-11-05T09:44:00.546Z,100668.88
2022-11-05T09:46:35.775Z,100667.34
2022-11-05T09:49:09.586Z,100671.09
2022-11-05T09:51:39.578Z,100671.25
2022-11-05T09:54:08.652Z,100672.22
2022-11-05T09:56:42.711Z,100679.09
2022-11-05T09:59:20.000Z,100671.72
2022-11-05T10:01:52.322Z,100679.72
2022-11-05T10:04:25.632Z,100677.47
2022-11-05T10:06:58.887Z,100678.50
2022-11-05T10:09:31.826Z,100682.78
2022-11-05T10:12:09.137Z,100691.28
2022-11-05T10:14:44.815Z,100685.13
2022-11-05T10:17:26.856Z,100698.78
2022-11-05T10:20:02.066Z,100671.28
2022-11-05T10:22:32.633Z,100687.22
2022-11-05T10:25:02.285Z,100694.63
2022-11-05T10:27:37.226Z,100694.78
2022-11-05T10:30:09.731Z,100692.34
2022-11-05T10:32:41.184Z,100701.69
2022-11-05T10:35:16.209Z,100703.44
2022-11-05T10:37:50.381Z,100708.50
2022-11-05T10:40:30.939Z,100702.38
2022-11-05T10:43:06.722Z,100700.25
2022-11-05T10:45:48.313Z,100696.78
2022-11-05T10:48:31.766Z,100702.84
2022-11-05T10:51:08.353Z,100696.22
2022-11-05T10:54:09.339Z,100694.00
2022-11-05T10:56:40.763Z,100699.91
2022-11-05T10:59:22.833Z,100706.53
2022-11-05T11:02:01.424Z,100713.00
2022-11-05T11:04:37.681Z,100724.31
2022-11-05T11:07:07.644Z,100714.34
2022-11-05T11:09:38.833Z,100718.97
2022-11-05T11:12:16.721Z,100713.69
2022-11-05T11:15:01.839Z,100714.34
2022-11-05T11:17:35.553Z,100712.13
2022-11-05T11:20:22.126Z,100722.16
2022-11-05T11:23:13.969Z,100722.66
2022-11-05T11:25:48.784Z,100723.16
2022-11-05T11:28:23.431Z,100726.41
2022-11-05T11:30:57.037Z,100723.91
2022-11-05T11:33:30.341Z,100733.47
2022-11-05T11:36:00.176Z,100738.28
2022-11-05T11:38:32.448Z,100751.47
2022-11-05T11:41:26.707Z,100724.78
2022-11-05T11:43:58.932Z,100749.28
2022-11-05T11:46:32.748Z,100757.56
2022-11-05T11:49:04.735Z,100742.59
2022-11-05T11:51:40.179Z,100741.94
2022-11-05T11:54:24.865Z,100743.25
2022-11-05T11:56:57.959Z,100741.88
2022-11-05T12:02:58.869Z,100750.41
2022-11-05T12:05:46.463Z,100758.44
2022-11-05T12:08:34.618Z,100750.78
2022-11-05T12:11:09.770Z,100753.16
2022-11-05T12:14:06.366Z,100749.81
2022-11-05T12:17:00.909Z,100750.31
2022-11-05T12:19:49.868Z,100751.91
2022-11-05T12:22:30.814Z,100746.75
2022-11-05T12:28:03.982Z,100746.28
2022-11-05T12:30:46.074Z,100735.19
2022-11-05T12:33:23.326Z,100745.31
2022-11-05T12:36:10.462Z,100747.75
2022-11-05T12:38:56.984Z,100755.66
2022-11-05T12:41:36.608Z,100753.22
2022-11-05T12:44:32.403Z,100755.63
2022-11-05T12:47:19.658Z,100747.63
2022-11-05T12:55:49.217Z,100774.84
2022-11-05T12:58:24.913Z,100777.16
2022-11-05T13:00:59.645Z,100772.91
2022-11-05T13:03:38.457Z,100780.03
2022-11-05T13:06:12.088Z,100777.06
2022-11-05T13:08:46.430Z,100791.00
2022-11-05T13:11:24.719Z,100775.97
2022-11-05T13:14:05.835Z,100779.91
2022-11-05T13:16:39.218Z,100784.97
2022-11-05T13:19:18.593Z,100784.97
2022-11-05T13:21:54.145Z,100777.19
2022-11-05T13:24:26.762Z,100782.16
2022-11-05T13:27:17.000Z,100781.09
2022-11-05T13:29:51.839Z,100792.69
2022-11-05T13:32:37.422Z,100784.59
2022-11-05T13:35:09.637Z,100798.13
2022-11-05T13:37:59.904Z,100794.22
2022-11-05T13:40:56.969Z,100798.72
2022-11-05T13:43:51.851Z,100797.59
2022-11-05T13:46:34.205Z,100810.88
2022-11-05T13:52:24.619Z,100816.03
2022-11-05T13:55:19.860Z,100827.66
2022-11-05T13:58:04.152Z,100822.91
2022-11-05T14:00:41.832Z,100823.19
2022-11-05T14:03:21.124Z,100821.59
2022-11-05T14:05:56.794Z,100833.38
2022-11-05T14:08:31.911Z,100820.84
2022-11-05T14:11:10.464Z,100819.03
2022-11-05T14:13:42.425Z,100826.69
2022-11-05T14:16:19.215Z,100833.09
2022-11-05T14:18:50.324Z,100843.00
2022-11-05T14:21:50.910Z,100842.28
2022-11-05T14:24:47.527Z,100841.41
2022-11-05T14:27:46.434Z,100818.16
2022-11-05T14:30:43.852Z,100842.88
2022-11-05T14:33:33.136Z,100841.41
2022-11-05T14:36:37.906Z,100831.50
2022-11-05T14:39:26.147Z,100838.81
2022-11-05T14:41:58.578Z,100822.22
2022-11-05T14:44:40.173Z,100824.50
2022-11-05T14:47:24.007Z,100824.84
2022-11-05T14:50:02.102Z,100843.97
2022-11-05T14:52:33.525Z,100837.13
2022-11-05T14:55:02.962Z,100838.88
2022-11-05T14:58:03.793Z,100846.38
2022-11-05T15:00:52.529Z,100846.44
2022-11-05T15:03:47.535Z,100844.56
2022-11-05T15:06:30.270Z,100844.47
2022-11-05T15:09:12.127Z,100850.66
2022-11-05T15:11:58.335Z,100842.72
2022-11-05T15:14:33.350Z,100848.22
2022-11-05T15:17:15.271Z,100856.56
2022-11-05T15:19:46.371Z,100861.72
2022-11-05T15:22:31.190Z,100866.19
2022-11-05T15:25:00.935Z,100862.19
2022-11-05T15:27:48.249Z,100850.13
2022-11-05T15:30:19.192Z,100858.91
2022-11-05T15:32:48.718Z,100868.50
2022-11-05T15:35:24.339Z,100873.59
2022-11-05T15:38:01.661Z,100872.88
2022-11-05T15:40:33.382Z,100867.13
2022-11-05T15:43:19.559Z,100887.50
2022-11-05T15:46:07.405Z,100855.44
2022-11-05T15:48:38.040Z,100876.41
2022-11-05T15:51:08.072Z,100881.16
2022-11-05T15:54:28.473Z,100875.50
2022-11-05T15:56:53.972Z,100881.72
2022-11-05T15:59:25.173Z,100881.06
2022-11-05T16:01:57.149Z,100887.25
2022-11-05T16:04:29.764Z,100875.59
2022-11-05T16:07:01.953Z,100877.13
2022-11-05T16:09:45.527Z,100869.81
2022-11-05T16:12:26.721Z,100869.56
2022-11-05T16:15:01.424Z,100879.03
2022-11-05T16:17:48.239Z,100873.81
2022-11-05T16:20:24.851Z,100864.13
2022-11-05T16:22:56.149Z,100864.00
2022-11-05T16:25:41.138Z,100881.16
2022-11-05T16:28:23.348Z,100886.41
2022-11-05T16:31:02.933Z,100883.06
2022-11-05T16:33:36.205Z,100875.56
2022-11-05T16:36:06.056Z,100877.44
2022-11-05T16:38:35.480Z,100882.75
2022-11-05T16:41:06.796Z,100877.53
2022-11-05T16:43:36.454Z,100878.66
2022-11-05T16:46:06.315Z,100871.97
2022-11-05T16:48:35.467Z,100870.78
2022-11-05T16:51:05.239Z,100877.56
2022-11-05T16:53:34.467Z,100880.03
2022-11-05T16:56:06.444Z,100879.97
2022-11-05T16:58:35.967Z,100870.63
2022-11-05T17:01:07.887Z,100870.50
2022-11-05T17:03:37.801Z,100885.31
2022-11-05T17:06:07.942Z,100886.81
2022-11-05T17:08:43.935Z,100891.91
2022-11-05T17:11:17.378Z,100891.16
2022-11-05T17:13:51.661Z,100887.13
2022-11-05T17:16:20.985Z,100894.22
2022-11-05T17:18:50.577Z,100890.81
2022-11-05T17:21:20.131Z,100885.50
2022-11-05T17:23:49.384Z,100897.13
2022-11-05T17:26:22.647Z,100893.69
2022-11-05T17:28:52.057Z,100898.59
2022-11-05T17:31:21.279Z,100895.03
2022-11-05T17:33:55.561Z,100893.56
2022-11-05T17:36:25.322Z,100895.97
2022-11-05T17:38:55.529Z,100898.38
2022-11-05T17:41:31.946Z,100897.44
2022-11-05T17:44:01.216Z,100900.78
2022-11-05T17:46:30.618Z,100896.56
2022-11-05T17:49:00.022Z,100898.38
2022-11-05T17:51:29.371Z,100903.13
2022-11-05T17:53:58.851Z,100900.72
2022-11-05T17:56:34.419Z,100902.81
2022-11-05T17:59:07.614Z,100905.50
2022-11-05T18:01:47.704Z,100909.22
2022-11-05T18:04:17.120Z,100904.31
2022-11-05T18:06:46.213Z,100906.28
2022-11-05T18:09:17.195Z,100896.63
2022-11-05T18:11:46.528Z,100903.88
2022-11-05T18:14:22.784Z,100878.53
2022-11-05T18:16:54.781Z,100899.09
2022-11-05T18:19:24.209Z,100902.47
2022-11-05T18:21:53.398Z,100903.94
2022-11-05T18:24:22.920Z,100907.28
2022-11-05T18:26:52.990Z,100908.38
2022-11-05T18:29:24.104Z,100907.19
2022-11-05T18:31:53.500Z,100900.28
2022-11-05T18:34:22.948Z,100898.91
2022-11-05T18:36:56.600Z,100903.22
2022-11-05T18:39:26.643Z,100898.16
2022-11-05T18:41:56.077Z,100912.72
2022-11-05T18:44:37.810Z,100909.53
2022-11-05T18:47:08.849Z,100910.53
2022-11-05T18:49:41.213Z,100918.38
2022-11-05T18:52:10.700Z,100916.09
2022-11-05T18:54:39.961Z,100918.69
2022-11-05T18:57:09.649Z,100920.59
2022-11-05T18:59:41.681Z,100902.78
2022-11-05T19:02:18.153Z,100912.13
2022-11-05T19:05:07.000Z,100922.03
2022-11-05T19:07:43.648Z,100921.22
2022-11-05T19:10:13.062Z,100910.97
2022-11-05T19:12:42.595Z,100923.63
2022-11-05T19:15:19.039Z,100924.94
2022-11-05T19:17:48.440Z,100923.97
2022-11-05T19:20:17.931Z,100931.63
2022-11-05T19:22:47.358Z,100935.94
2022-11-05T19:25:16.625Z,100930.19
2022-11-05T19:27:46.122Z,100934.31
2022-11-05T19:30:17.526Z,100939.03
2022-11-05T19:32:46.947Z,100945.59
2022-11-05T19:35:16.295Z,100939.41
2022-11-05T19:37:45.767Z,100932.88
2022-11-05T19:40:15.014Z,100942.84
2022-11-05T19:42:44.265Z,100952.28
2022-11-05T19:45:43.040Z,100953.19
2022-11-05T19:48:11.431Z,100947.50
2022-11-05T19:50:44.183Z,100951.91
2022-11-05T19:53:13.481Z,100946.03
2022-11-05T19:55:44.584Z,100943.47
2022-11-05T19:58:14.135Z,100953.41
2022-11-05T20:00:43.757Z,100952.69
2022-11-05T20:03:15.551Z,100950.22
2022-11-05T20:05:49.936Z,100944.13
2022-11-05T20:08:24.248Z,100953.03
2022-11-05T20:10:56.959Z,100947.16
2022-11-05T20:13:31.620Z,100955.78
2022-11-05T20:16:01.361Z,100957.47
2022-11-05T20:18:33.214Z,100963.44
2022-11-05T20:21:03.332Z,100959.63
2022-11-05T20:23:33.380Z,100965.19
2022-11-05T20:26:07.763Z,100969.56
2022-11-05T20:28:38.432Z,100957.66
2022-11-05T20:31:12.108Z,100972.50
2022-11-05T20:33:44.546Z,100962.03
2022-11-05T20:36:15.950Z,100971.63
2022-11-05T20:38:49.851Z,100966.53
2022-11-05T20:41:21.894Z,100978.38
2022-11-05T20:43:51.149Z,100968.91
2022-11-05T20:46:21.924Z,100962.63
2022-11-05T20:48:58.271Z,100961.06
2022-11-05T20:51:27.527Z,100962.75
2022-11-05T20:53:58.017Z,100957.59
2022-11-05T20:56:29.586Z,100963.69
2022-11-05T20:58:59.786Z,100957.66
2022-11-05T21:01:36.086Z,100951.69
2022-11-05T21:04:08.671Z,100951.84
2022-11-05T21:06:37.948Z,100956.94
2022-11-05T21:09:07.666Z,100961.13
2022-11-05T21:12:02.897Z,100955.03
2022-11-05T21:14:32.064Z,100951.91
2022-11-05T21:17:01.135Z,100938.66
2022-11-05T21:19:32.611Z,100958.00
2022-11-05T21:22:02.308Z,100958.97
2022-11-05T21:24:31.590Z,100957.13
2022-11-05T21:27:01.125Z,100951.69
2022-11-05T21:29:30.313Z,100960.28
2022-11-05T21:31:59.812Z,100960.13
2022-11-05T21:34:34.971Z,100960.13
2022-11-05T21:37:11.279Z,100969.75
2022-11-05T21:39:41.034Z,100962.03
2022-11-05T21:42:10.248Z,100953.00
2022-11-05T21:44:39.691Z,100970.66
2022-11-05T21:47:09.157Z,100965.50
2022-11-05T21:49:38.841Z,100975.13
2022-11-05T21:52:25.821Z,100934.97
2022-11-05T21:55:07.899Z,100967.47
2022-11-05T21:57:55.457Z,100968.31
2022-11-05T22:00:24.947Z,100959.81
2022-11-05T22:02:54.326Z,100961.50
2022-11-05T22:05:23.550Z,100968.47
2022-11-05T22:07:54.768Z,100957.84
2022-11-05T22:10:29.072Z,100963.59
2022-11-05T22:12:58.339Z,100960.44
2022-11-05T22:15:32.732Z,100973.47
2022-11-05T22:18:01.951Z,100976.03
2022-11-05T22:20:31.200Z,100945.53
2022-11-05T22:23:02.349Z,100973.75
2022-11-05T22:25:31.654Z,100977.22
2022-11-05T22:28:00.748Z,100960.53
2022-11-05T22:30:30.147Z,100976.09
2022-11-05T22:32:59.417Z,100994.00
2022-11-05T22:35:28.945Z,100977.59
2022-11-05T22:38:04.520Z,100981.50
2022-11-05T22:40:35.724Z,100978.91
2022-11-05T22:43:10.196Z,100991.25
2022-11-05T22:45:40.187Z,100990.13
2022-11-05T22:48:09.864Z,100996.53
2022-11-05T22:50:39.624Z,100997.38
2022-11-05T22:53:08.723Z,101004.91
2022-11-05T22:55:42.964Z,101001.41
2022-11-05T22:58:12.413Z,101006.16
2022-11-05T23:00:41.806Z,100995.75
2022-11-05T23:03:11.584Z,101005.13
2022-11-05T23:05:40.819Z,101005.84
2022-11-05T23:08:24.604Z,101010.06
2022-11-05T23:11:17.641Z,101014.09
2022-11-05T23:13:46.791Z,101010.50
2022-11-05T23:16:28.727Z,101016.47
2022-11-05T23:19:10.527Z,101013.59
2022-11-05T23:21:52.567Z,101024.31
2022-11-05T23:24:21.663Z,101023.81
2022-11-05T23:26:53.410Z,101013.97
2022-11-05T23:29:25.057Z,101027.22
2022-11-05T23:32:07.501Z,101028.75
2022-11-05T23:34:37.196Z,101029.47
2022-11-05T23:37:19.496Z,101022.75
2022-11-05T23:39:50.018Z,101027.78
2022-11-05T23:42:39.973Z,101030.84
2022-11-05T23:45:23.638Z,101018.75
2022-11-05T23:48:05.872Z,101007.09
2022-11-05T23:50:39.482Z,101016.78
2022-11-05T23:53:09.521Z,101022.81
2022-11-05T23:55:39.380Z,101024.19
2022-11-05T23:58:12.092Z,101012.09
